sensor_id;sensor_type;location;lat;lon;timestamp;P1;durP1;ratioP1;P2;durP2;ratioP2
24090;SDS011;12272;52.426;17.100;2023-12-20T00:04:36;2.07;;;1.70;;
24090;SDS011;12272;52.426;17.100;2023-12-20T00:09:39;3.40;;;2.47;;
24090;SDS011;12272;52.426;17.100;2023-12-20T00:14:41;3.30;;;3.00;;
24090;SDS011;12272;52.426;17.100;2023-12-20T00:19:44;3.10;;;2.10;;
24090;SDS011;12272;52.426;17.100;2023-12-20T00:24:46;2.60;;;2.40;;
24090;SDS011;12272;52.426;17.100;2023-12-20T00:29:49;2.53;;;1.60;;
24090;SDS011;12272;52.426;17.100;2023-12-20T00:34:52;2.67;;;2.00;;
24090;SDS011;12272;52.426;17.100;2023-12-20T00:39:54;2.17;;;1.57;;
24090;SDS011;12272;52.426;17.100;2023-12-20T00:44:56;2.30;;;1.90;;
24090;SDS011;12272;52.426;17.100;2023-12-20T00:50:00;2.23;;;1.90;;
24090;SDS011;12272;52.426;17.100;2023-12-20T00:55:03;2.87;;;2.03;;
24090;SDS011;12272;52.426;17.100;2023-12-20T01:00:06;3.33;;;2.23;;
24090;SDS011;12272;52.426;17.100;2023-12-20T01:05:11;4.30;;;1.90;;
24090;SDS011;12272;52.426;17.100;2023-12-20T01:10:14;2.20;;;1.97;;
24090;SDS011;12272;52.426;17.100;2023-12-20T01:15:17;1.97;;;1.77;;
24090;SDS011;12272;52.426;17.100;2023-12-20T01:20:19;2.47;;;2.20;;
24090;SDS011;12272;52.426;17.100;2023-12-20T01:25:22;2.33;;;2.00;;
24090;SDS011;12272;52.426;17.100;2023-12-20T01:30:25;2.10;;;1.87;;
24090;SDS011;12272;52.426;17.100;2023-12-20T01:35:27;2.30;;;2.10;;
24090;SDS011;12272;52.426;17.100;2023-12-20T01:40:30;2.87;;;2.17;;
24090;SDS011;12272;52.426;17.100;2023-12-20T01:45:32;2.20;;;2.00;;
24090;SDS011;12272;52.426;17.100;2023-12-20T01:50:35;2.53;;;1.87;;
24090;SDS011;12272;52.426;17.100;2023-12-20T01:55:39;2.60;;;1.87;;
24090;SDS011;12272;52.426;17.100;2023-12-20T02:00:42;2.53;;;2.03;;
24090;SDS011;12272;52.426;17.100;2023-12-20T02:05:45;1.50;;;1.30;;
24090;SDS011;12272;52.426;17.100;2023-12-20T02:10:48;2.57;;;1.80;;
24090;SDS011;12272;52.426;17.100;2023-12-20T02:15:51;3.77;;;2.30;;
24090;SDS011;12272;52.426;17.100;2023-12-20T02:20:54;1.70;;;1.60;;
24090;SDS011;12272;52.426;17.100;2023-12-20T02:25:57;3.17;;;2.17;;
24090;SDS011;12272;52.426;17.100;2023-12-20T02:31:00;2.13;;;1.93;;
24090;SDS011;12272;52.426;17.100;2023-12-20T02:36:02;1.53;;;1.03;;
24090;SDS011;12272;52.426;17.100;2023-12-20T02:41:05;1.60;;;1.43;;
24090;SDS011;12272;52.426;17.100;2023-12-20T02:46:07;1.97;;;1.60;;
24090;SDS011;12272;52.426;17.100;2023-12-20T02:51:10;1.60;;;1.50;;
24090;SDS011;12272;52.426;17.100;2023-12-20T02:56:12;1.50;;;1.30;;
24090;SDS011;12272;52.426;17.100;2023-12-20T03:01:16;2.33;;;1.97;;
24090;SDS011;12272;52.426;17.100;2023-12-20T03:06:19;2.57;;;1.37;;
24090;SDS011;12272;52.426;17.100;2023-12-20T03:11:21;1.50;;;1.40;;
24090;SDS011;12272;52.426;17.100;2023-12-20T03:16:23;1.20;;;1.10;;
24090;SDS011;12272;52.426;17.100;2023-12-20T03:21:26;1.47;;;1.13;;
24090;SDS011;12272;52.426;17.100;2023-12-20T03:26:28;1.40;;;1.30;;
24090;SDS011;12272;52.426;17.100;2023-12-20T03:31:31;4.57;;;1.60;;
24090;SDS011;12272;52.426;17.100;2023-12-20T03:36:33;1.67;;;1.47;;
24090;SDS011;12272;52.426;17.100;2023-12-20T03:41:36;1.40;;;1.30;;
24090;SDS011;12272;52.426;17.100;2023-12-20T03:46:39;1.70;;;1.00;;
24090;SDS011;12272;52.426;17.100;2023-12-20T03:51:41;1.60;;;1.13;;
24090;SDS011;12272;52.426;17.100;2023-12-20T03:56:44;2.27;;;2.07;;
24090;SDS011;12272;52.426;17.100;2023-12-20T04:01:47;1.93;;;1.63;;
24090;SDS011;12272;52.426;17.100;2023-12-20T04:06:50;1.30;;;0.80;;
24090;SDS011;12272;52.426;17.100;2023-12-20T04:11:52;1.40;;;1.17;;
24090;SDS011;12272;52.426;17.100;2023-12-20T04:16:55;2.60;;;1.50;;
24090;SDS011;12272;52.426;17.100;2023-12-20T04:21:57;1.50;;;1.30;;
24090;SDS011;12272;52.426;17.100;2023-12-20T04:27:00;1.97;;;1.47;;
24090;SDS011;12272;52.426;17.100;2023-12-20T04:32:04;1.70;;;1.40;;
24090;SDS011;12272;52.426;17.100;2023-12-20T04:37:06;1.70;;;1.50;;
24090;SDS011;12272;52.426;17.100;2023-12-20T04:42:09;2.73;;;1.47;;
24090;SDS011;12272;52.426;17.100;2023-12-20T04:47:11;2.43;;;2.20;;
24090;SDS011;12272;52.426;17.100;2023-12-20T04:52:14;1.30;;;1.03;;
24090;SDS011;12272;52.426;17.100;2023-12-20T04:57:17;1.17;;;1.00;;
24090;SDS011;12272;52.426;17.100;2023-12-20T05:02:19;1.53;;;1.30;;
24090;SDS011;12272;52.426;17.100;2023-12-20T05:07:22;0.70;;;0.70;;
24090;SDS011;12272;52.426;17.100;2023-12-20T05:12:24;1.80;;;1.70;;
24090;SDS011;12272;52.426;17.100;2023-12-20T05:17:27;2.07;;;1.33;;
24090;SDS011;12272;52.426;17.100;2023-12-20T05:22:29;2.27;;;2.07;;
24090;SDS011;12272;52.426;17.100;2023-12-20T05:27:32;0.90;;;0.80;;
24090;SDS011;12272;52.426;17.100;2023-12-20T05:32:34;1.40;;;1.23;;
24090;SDS011;12272;52.426;17.100;2023-12-20T05:37:37;1.60;;;1.50;;
24090;SDS011;12272;52.426;17.100;2023-12-20T05:42:40;6.40;;;1.50;;
24090;SDS011;12272;52.426;17.100;2023-12-20T05:47:42;3.03;;;1.37;;
24090;SDS011;12272;52.426;17.100;2023-12-20T05:52:46;1.67;;;1.17;;
24090;SDS011;12272;52.426;17.100;2023-12-20T05:57:49;1.30;;;1.10;;
24090;SDS011;12272;52.426;17.100;2023-12-20T06:02:51;1.50;;;1.40;;
24090;SDS011;12272;52.426;17.100;2023-12-20T06:07:54;1.37;;;0.80;;
24090;SDS011;12272;52.426;17.100;2023-12-20T06:12:58;1.07;;;0.97;;
24090;SDS011;12272;52.426;17.100;2023-12-20T06:18:02;1.73;;;1.53;;
24090;SDS011;12272;52.426;17.100;2023-12-20T06:23:05;1.40;;;0.70;;
24090;SDS011;12272;52.426;17.100;2023-12-20T06:28:08;1.30;;;1.20;;
24090;SDS011;12272;52.426;17.100;2023-12-20T06:33:12;1.47;;;1.27;;
24090;SDS011;12272;52.426;17.100;2023-12-20T06:38:15;1.40;;;0.80;;
24090;SDS011;12272;52.426;17.100;2023-12-20T06:43:19;1.63;;;1.00;;
24090;SDS011;12272;52.426;17.100;2023-12-20T06:48:42;1.07;;;0.97;;
24090;SDS011;12272;52.426;17.100;2023-12-20T06:53:44;0.70;;;0.60;;
24090;SDS011;12272;52.426;17.100;2023-12-20T06:58:47;2.13;;;1.80;;
24090;SDS011;12272;52.426;17.100;2023-12-20T07:03:49;2.17;;;1.20;;
24090;SDS011;12272;52.426;17.100;2023-12-20T07:08:52;1.87;;;1.10;;
24090;SDS011;12272;52.426;17.100;2023-12-20T07:13:54;2.70;;;0.90;;
24090;SDS011;12272;52.426;17.100;2023-12-20T07:18:57;1.20;;;1.10;;
24090;SDS011;12272;52.426;17.100;2023-12-20T07:24:00;1.00;;;0.90;;
24090;SDS011;12272;52.426;17.100;2023-12-20T07:29:02;2.00;;;1.37;;
24090;SDS011;12272;52.426;17.100;2023-12-20T07:34:06;1.30;;;1.20;;
24090;SDS011;12272;52.426;17.100;2023-12-20T07:39:08;0.70;;;0.70;;
24090;SDS011;12272;52.426;17.100;2023-12-20T07:44:12;1.40;;;1.17;;
24090;SDS011;12272;52.426;17.100;2023-12-20T07:49:14;1.83;;;0.70;;
24090;SDS011;12272;52.426;17.100;2023-12-20T07:54:17;0.90;;;0.80;;
24090;SDS011;12272;52.426;17.100;2023-12-20T07:59:19;2.77;;;1.30;;
24090;SDS011;12272;52.426;17.100;2023-12-20T08:04:33;1.93;;;1.33;;
24090;SDS011;12272;52.426;17.100;2023-12-20T08:09:35;1.50;;;1.20;;
24090;SDS011;12272;52.426;17.100;2023-12-20T08:14:39;3.10;;;1.93;;
24090;SDS011;12272;52.426;17.100;2023-12-20T08:19:41;0.87;;;0.73;;
24090;SDS011;12272;52.426;17.100;2023-12-20T08:24:44;2.83;;;1.53;;
24090;SDS011;12272;52.426;17.100;2023-12-20T08:29:47;1.17;;;0.67;;
24090;SDS011;12272;52.426;17.100;2023-12-20T08:34:51;1.90;;;1.13;;
24090;SDS011;12272;52.426;17.100;2023-12-20T08:39:54;2.40;;;1.10;;
24090;SDS011;12272;52.426;17.100;2023-12-20T08:44:59;1.03;;;0.77;;
24090;SDS011;12272;52.426;17.100;2023-12-20T08:50:02;1.03;;;0.80;;
24090;SDS011;12272;52.426;17.100;2023-12-20T08:55:05;1.63;;;0.60;;
24090;SDS011;12272;52.426;17.100;2023-12-20T09:00:09;5.83;;;0.93;;
24090;SDS011;12272;52.426;17.100;2023-12-20T09:05:12;1.00;;;0.90;;
24090;SDS011;12272;52.426;17.100;2023-12-20T09:10:14;2.73;;;0.80;;
24090;SDS011;12272;52.426;17.100;2023-12-20T09:15:20;2.50;;;0.77;;
24090;SDS011;12272;52.426;17.100;2023-12-20T09:20:22;3.03;;;2.07;;
24090;SDS011;12272;52.426;17.100;2023-12-20T09:25:25;1.23;;;0.97;;
24090;SDS011;12272;52.426;17.100;2023-12-20T09:30:29;2.67;;;1.30;;
24090;SDS011;12272;52.426;17.100;2023-12-20T09:35:31;2.73;;;1.50;;
24090;SDS011;12272;52.426;17.100;2023-12-20T09:40:34;0.67;;;0.63;;
24090;SDS011;12272;52.426;17.100;2023-12-20T09:45:38;0.50;;;0.50;;
24090;SDS011;12272;52.426;17.100;2023-12-20T09:50:42;1.27;;;0.57;;
24090;SDS011;12272;52.426;17.100;2023-12-20T09:55:53;2.80;;;1.43;;
24090;SDS011;12272;52.426;17.100;2023-12-20T10:00:55;4.20;;;0.90;;
24090;SDS011;12272;52.426;17.100;2023-12-20T10:05:59;0.90;;;0.60;;
24090;SDS011;12272;52.426;17.100;2023-12-20T10:11:03;1.70;;;1.10;;
24090;SDS011;12272;52.426;17.100;2023-12-20T10:16:06;1.30;;;0.90;;
24090;SDS011;12272;52.426;17.100;2023-12-20T10:21:12;1.70;;;0.70;;
24090;SDS011;12272;52.426;17.100;2023-12-20T10:26:24;2.83;;;1.43;;
24090;SDS011;12272;52.426;17.100;2023-12-20T10:31:34;2.20;;;1.67;;
24090;SDS011;12272;52.426;17.100;2023-12-20T10:36:37;4.37;;;1.40;;
24090;SDS011;12272;52.426;17.100;2023-12-20T10:41:39;5.67;;;1.97;;
24090;SDS011;12272;52.426;17.100;2023-12-20T10:46:43;6.80;;;2.20;;
24090;SDS011;12272;52.426;17.100;2023-12-20T10:51:53;6.60;;;3.30;;
24090;SDS011;12272;52.426;17.100;2023-12-20T10:56:59;2.40;;;1.60;;
24090;SDS011;12272;52.426;17.100;2023-12-20T11:02:05;5.17;;;1.03;;
24090;SDS011;12272;52.426;17.100;2023-12-20T11:07:12;4.57;;;1.53;;
24090;SDS011;12272;52.426;17.100;2023-12-20T11:12:38;6.00;;;1.93;;
24090;SDS011;12272;52.426;17.100;2023-12-20T11:17:54;8.47;;;2.50;;
24090;SDS011;12272;52.426;17.100;2023-12-20T11:22:58;4.63;;;1.47;;
24090;SDS011;12272;52.426;17.100;2023-12-20T11:28:07;5.27;;;1.93;;
24090;SDS011;12272;52.426;17.100;2023-12-20T11:33:12;4.33;;;0.87;;
24090;SDS011;12272;52.426;17.100;2023-12-20T11:38:19;2.60;;;1.83;;
24090;SDS011;12272;52.426;17.100;2023-12-20T11:43:29;4.27;;;1.63;;
24090;SDS011;12272;52.426;17.100;2023-12-20T11:48:41;1.97;;;1.40;;
24090;SDS011;12272;52.426;17.100;2023-12-20T11:53:50;4.70;;;1.30;;
24090;SDS011;12272;52.426;17.100;2023-12-20T11:58:55;1.50;;;1.10;;
24090;SDS011;12272;52.426;17.100;2023-12-20T12:04:13;3.80;;;0.50;;
24090;SDS011;12272;52.426;17.100;2023-12-20T12:09:17;5.37;;;1.80;;
24090;SDS011;12272;52.426;17.100;2023-12-20T12:14:19;1.93;;;1.10;;
24090;SDS011;12272;52.426;17.100;2023-12-20T12:19:23;1.53;;;0.90;;
24090;SDS011;12272;52.426;17.100;2023-12-20T12:24:27;2.90;;;1.37;;
24090;SDS011;12272;52.426;17.100;2023-12-20T12:29:30;1.30;;;0.63;;
24090;SDS011;12272;52.426;17.100;2023-12-20T12:34:33;2.27;;;1.00;;
24090;SDS011;12272;52.426;17.100;2023-12-20T12:39:36;2.23;;;0.90;;
24090;SDS011;12272;52.426;17.100;2023-12-20T12:44:39;2.50;;;0.87;;
24090;SDS011;12272;52.426;17.100;2023-12-20T12:49:41;2.40;;;1.47;;
24090;SDS011;12272;52.426;17.100;2023-12-20T12:54:44;6.77;;;1.40;;
24090;SDS011;12272;52.426;17.100;2023-12-20T12:59:47;1.73;;;0.80;;
24090;SDS011;12272;52.426;17.100;2023-12-20T13:04:49;1.20;;;0.90;;
24090;SDS011;12272;52.426;17.100;2023-12-20T13:09:52;5.50;;;1.27;;
24090;SDS011;12272;52.426;17.100;2023-12-20T13:14:54;1.53;;;0.67;;
24090;SDS011;12272;52.426;17.100;2023-12-20T13:25:35;4.77;;;1.27;;
24090;SDS011;12272;52.426;17.100;2023-12-20T13:30:38;4.83;;;1.83;;
24090;SDS011;12272;52.426;17.100;2023-12-20T13:35:41;3.10;;;1.60;;
24090;SDS011;12272;52.426;17.100;2023-12-20T13:40:43;2.33;;;1.07;;
24090;SDS011;12272;52.426;17.100;2023-12-20T13:45:46;1.70;;;0.80;;
24090;SDS011;12272;52.426;17.100;2023-12-20T13:50:49;3.50;;;0.90;;
24090;SDS011;12272;52.426;17.100;2023-12-20T13:55:52;1.73;;;0.80;;
24090;SDS011;12272;52.426;17.100;2023-12-20T14:00:54;1.03;;;0.70;;
24090;SDS011;12272;52.426;17.100;2023-12-20T14:05:57;1.13;;;0.80;;
24090;SDS011;12272;52.426;17.100;2023-12-20T14:11:00;1.20;;;0.77;;
24090;SDS011;12272;52.426;17.100;2023-12-20T14:16:03;3.70;;;1.17;;
24090;SDS011;12272;52.426;17.100;2023-12-20T14:21:07;4.53;;;1.23;;
24090;SDS011;12272;52.426;17.100;2023-12-20T14:26:09;2.50;;;1.00;;
24090;SDS011;12272;52.426;17.100;2023-12-20T14:31:16;4.53;;;1.03;;
24090;SDS011;12272;52.426;17.100;2023-12-20T14:36:18;3.43;;;1.80;;
24090;SDS011;12272;52.426;17.100;2023-12-20T14:41:22;2.07;;;1.03;;
24090;SDS011;12272;52.426;17.100;2023-12-20T14:46:26;0.70;;;0.67;;
24090;SDS011;12272;52.426;17.100;2023-12-20T14:51:30;5.47;;;1.30;;
24090;SDS011;12272;52.426;17.100;2023-12-20T14:56:33;4.57;;;2.43;;
24090;SDS011;12272;52.426;17.100;2023-12-20T15:01:35;4.10;;;1.67;;
24090;SDS011;12272;52.426;17.100;2023-12-20T15:06:38;7.00;;;1.07;;
24090;SDS011;12272;52.426;17.100;2023-12-20T15:11:41;2.07;;;1.03;;
24090;SDS011;12272;52.426;17.100;2023-12-20T15:16:43;4.00;;;1.90;;
24090;SDS011;12272;52.426;17.100;2023-12-20T15:21:46;2.03;;;1.50;;
24090;SDS011;12272;52.426;17.100;2023-12-20T15:26:49;2.40;;;1.27;;
24090;SDS011;12272;52.426;17.100;2023-12-20T15:31:51;8.27;;;2.57;;
24090;SDS011;12272;52.426;17.100;2023-12-20T15:36:54;1.10;;;0.97;;
24090;SDS011;12272;52.426;17.100;2023-12-20T15:41:57;0.90;;;0.60;;
24090;SDS011;12272;52.426;17.100;2023-12-20T15:46:59;5.53;;;2.10;;
24090;SDS011;12272;52.426;17.100;2023-12-20T15:52:02;1.70;;;0.93;;
24090;SDS011;12272;52.426;17.100;2023-12-20T15:57:08;2.67;;;0.80;;
24090;SDS011;12272;52.426;17.100;2023-12-20T16:02:11;6.93;;;0.90;;
24090;SDS011;12272;52.426;17.100;2023-12-20T16:07:14;2.33;;;0.90;;
24090;SDS011;12272;52.426;17.100;2023-12-20T16:12:17;2.47;;;1.03;;
24090;SDS011;12272;52.426;17.100;2023-12-20T16:17:19;1.50;;;0.90;;
24090;SDS011;12272;52.426;17.100;2023-12-20T16:22:22;2.67;;;0.80;;
24090;SDS011;12272;52.426;17.100;2023-12-20T16:27:24;5.93;;;0.70;;
24090;SDS011;12272;52.426;17.100;2023-12-20T16:32:27;3.10;;;0.70;;
24090;SDS011;12272;52.426;17.100;2023-12-20T16:37:29;1.37;;;0.80;;
24090;SDS011;12272;52.426;17.100;2023-12-20T16:42:32;1.63;;;0.97;;
24090;SDS011;12272;52.426;17.100;2023-12-20T16:47:35;3.00;;;1.70;;
24090;SDS011;12272;52.426;17.100;2023-12-20T16:52:37;1.90;;;1.10;;
24090;SDS011;12272;52.426;17.100;2023-12-20T16:57:41;1.70;;;0.60;;
24090;SDS011;12272;52.426;17.100;2023-12-20T17:02:44;1.90;;;0.83;;
24090;SDS011;12272;52.426;17.100;2023-12-20T17:07:47;1.27;;;0.87;;
24090;SDS011;12272;52.426;17.100;2023-12-20T17:12:50;1.73;;;1.17;;
24090;SDS011;12272;52.426;17.100;2023-12-20T17:17:53;1.43;;;0.80;;
24090;SDS011;12272;52.426;17.100;2023-12-20T17:22:56;2.57;;;1.40;;
24090;SDS011;12272;52.426;17.100;2023-12-20T17:28:00;2.43;;;1.37;;
24090;SDS011;12272;52.426;17.100;2023-12-20T17:33:03;4.00;;;1.07;;
24090;SDS011;12272;52.426;17.100;2023-12-20T17:38:06;1.33;;;1.10;;
24090;SDS011;12272;52.426;17.100;2023-12-20T17:43:09;1.93;;;0.73;;
24090;SDS011;12272;52.426;17.100;2023-12-20T17:48:12;2.60;;;1.50;;
24090;SDS011;12272;52.426;17.100;2023-12-20T17:53:14;1.73;;;1.23;;
24090;SDS011;12272;52.426;17.100;2023-12-20T17:58:17;0.70;;;0.50;;
24090;SDS011;12272;52.426;17.100;2023-12-20T18:03:23;3.50;;;1.33;;
24090;SDS011;12272;52.426;17.100;2023-12-20T18:08:26;1.23;;;0.80;;
24090;SDS011;12272;52.426;17.100;2023-12-20T18:13:28;3.67;;;1.20;;
24090;SDS011;12272;52.426;17.100;2023-12-20T18:18:31;1.37;;;0.60;;
24090;SDS011;12272;52.426;17.100;2023-12-20T18:23:34;4.50;;;0.60;;
24090;SDS011;12272;52.426;17.100;2023-12-20T18:28:36;1.27;;;0.80;;
24090;SDS011;12272;52.426;17.100;2023-12-20T18:33:39;1.47;;;0.87;;
24090;SDS011;12272;52.426;17.100;2023-12-20T18:38:41;6.00;;;1.67;;
24090;SDS011;12272;52.426;17.100;2023-12-20T18:43:44;6.53;;;2.43;;
24090;SDS011;12272;52.426;17.100;2023-12-20T18:48:46;10.40;;;1.87;;
24090;SDS011;12272;52.426;17.100;2023-12-20T18:53:49;6.50;;;2.10;;
24090;SDS011;12272;52.426;17.100;2023-12-20T18:58:55;6.20;;;2.00;;
24090;SDS011;12272;52.426;17.100;2023-12-20T19:03:57;4.07;;;1.80;;
24090;SDS011;12272;52.426;17.100;2023-12-20T19:09:00;4.40;;;2.43;;
24090;SDS011;12272;52.426;17.100;2023-12-20T19:14:02;6.30;;;3.57;;
24090;SDS011;12272;52.426;17.100;2023-12-20T19:19:06;7.67;;;2.33;;
24090;SDS011;12272;52.426;17.100;2023-12-20T19:24:10;9.03;;;2.90;;
24090;SDS011;12272;52.426;17.100;2023-12-20T19:29:12;5.97;;;2.53;;
24090;SDS011;12272;52.426;17.100;2023-12-20T19:34:15;3.23;;;2.00;;
24090;SDS011;12272;52.426;17.100;2023-12-20T19:39:17;4.23;;;1.93;;
24090;SDS011;12272;52.426;17.100;2023-12-20T19:44:20;24.03;;;9.10;;
24090;SDS011;12272;52.426;17.100;2023-12-20T19:49:23;5.37;;;2.73;;
24090;SDS011;12272;52.426;17.100;2023-12-20T19:54:26;7.07;;;2.90;;
24090;SDS011;12272;52.426;17.100;2023-12-20T19:59:28;6.47;;;2.80;;
24090;SDS011;12272;52.426;17.100;2023-12-20T20:04:31;66.80;;;34.03;;
24090;SDS011;12272;52.426;17.100;2023-12-20T20:09:33;59.43;;;27.63;;
24090;SDS011;12272;52.426;17.100;2023-12-20T20:14:36;48.47;;;23.47;;
24090;SDS011;12272;52.426;17.100;2023-12-20T20:19:38;50.13;;;23.67;;
24090;SDS011;12272;52.426;17.100;2023-12-20T20:24:41;25.63;;;14.07;;
24090;SDS011;12272;52.426;17.100;2023-12-20T20:29:44;57.67;;;25.93;;
24090;SDS011;12272;52.426;17.100;2023-12-20T20:34:47;27.23;;;13.77;;
24090;SDS011;12272;52.426;17.100;2023-12-20T20:39:50;57.50;;;28.63;;
24090;SDS011;12272;52.426;17.100;2023-12-20T20:44:52;51.47;;;30.43;;
24090;SDS011;12272;52.426;17.100;2023-12-20T20:49:55;50.20;;;27.03;;
24090;SDS011;12272;52.426;17.100;2023-12-20T20:54:58;53.50;;;27.37;;
24090;SDS011;12272;52.426;17.100;2023-12-20T21:00:00;44.83;;;21.93;;
24090;SDS011;12272;52.426;17.100;2023-12-20T21:05:03;47.17;;;24.03;;
24090;SDS011;12272;52.426;17.100;2023-12-20T21:10:07;38.63;;;19.03;;
24090;SDS011;12272;52.426;17.100;2023-12-20T21:15:10;37.33;;;18.43;;
24090;SDS011;12272;52.426;17.100;2023-12-20T21:20:15;29.63;;;17.27;;
24090;SDS011;12272;52.426;17.100;2023-12-20T21:25:18;38.73;;;17.77;;
24090;SDS011;12272;52.426;17.100;2023-12-20T21:30:22;36.70;;;19.00;;
24090;SDS011;12272;52.426;17.100;2023-12-20T21:35:25;28.67;;;14.07;;
24090;SDS011;12272;52.426;17.100;2023-12-20T21:40:28;51.83;;;24.90;;
24090;SDS011;12272;52.426;17.100;2023-12-20T21:45:31;24.87;;;15.10;;
24090;SDS011;12272;52.426;17.100;2023-12-20T21:50:33;39.27;;;19.37;;
24090;SDS011;12272;52.426;17.100;2023-12-20T21:55:40;25.07;;;14.47;;
24090;SDS011;12272;52.426;17.100;2023-12-20T22:00:43;32.10;;;17.50;;
24090;SDS011;12272;52.426;17.100;2023-12-20T22:05:46;35.90;;;18.33;;
24090;SDS011;12272;52.426;17.100;2023-12-20T22:10:49;36.00;;;21.40;;
24090;SDS011;12272;52.426;17.100;2023-12-20T22:15:52;31.73;;;17.30;;
24090;SDS011;12272;52.426;17.100;2023-12-20T22:20:54;35.60;;;18.47;;
24090;SDS011;12272;52.426;17.100;2023-12-20T22:25:56;34.63;;;18.63;;
24090;SDS011;12272;52.426;17.100;2023-12-20T22:30:59;32.37;;;19.37;;
24090;SDS011;12272;52.426;17.100;2023-12-20T22:36:02;34.67;;;21.77;;
24090;SDS011;12272;52.426;17.100;2023-12-20T22:41:05;43.43;;;23.33;;
24090;SDS011;12272;52.426;17.100;2023-12-20T22:46:11;33.07;;;15.73;;
24090;SDS011;12272;52.426;17.100;2023-12-20T22:51:16;41.23;;;21.47;;
24090;SDS011;12272;52.426;17.100;2023-12-20T22:56:18;25.43;;;13.20;;
24090;SDS011;12272;52.426;17.100;2023-12-20T23:01:21;30.97;;;15.17;;
24090;SDS011;12272;52.426;17.100;2023-12-20T23:06:24;28.93;;;15.80;;
24090;SDS011;12272;52.426;17.100;2023-12-20T23:11:26;18.03;;;9.83;;
24090;SDS011;12272;52.426;17.100;2023-12-20T23:16:29;34.27;;;19.07;;
24090;SDS011;12272;52.426;17.100;2023-12-20T23:21:31;28.40;;;15.37;;
24090;SDS011;12272;52.426;17.100;2023-12-20T23:26:34;27.80;;;15.53;;
24090;SDS011;12272;52.426;17.100;2023-12-20T23:31:36;29.00;;;16.23;;
24090;SDS011;12272;52.426;17.100;2023-12-20T23:36:39;19.63;;;10.87;;
24090;SDS011;12272;52.426;17.100;2023-12-20T23:41:42;27.20;;;16.20;;
24090;SDS011;12272;52.426;17.100;2023-12-20T23:46:44;20.50;;;13.13;;
24090;SDS011;12272;52.426;17.100;2023-12-20T23:51:47;30.50;;;19.00;;
24090;SDS011;12272;52.426;17.100;2023-12-20T23:56:50;20.90;;;12.63;;
